sensor_id;sensor_type;location;lat;lon;timestamp;temperature;humidity
71868;DHT22;59738;48.324;14.230;2022-08-04T00:01:32;23.00;28.00
71868;DHT22;59738;48.324;14.230;2022-08-04T00:04:04;22.90;28.70
71868;DHT22;59738;48.324;14.230;2022-08-04T00:06:47;22.70;29.30
71868;DHT22;59738;48.324;14.230;2022-08-04T00:09:26;22.70;28.90
71868;DHT22;59738;48.324;14.230;2022-08-04T00:12:00;22.90;28.50
71868;DHT22;59738;48.324;14.230;2022-08-04T00:14:31;22.80;29.10
71868;DHT22;59738;48.324;14.230;2022-08-04T00:17:03;22.80;29.20
71868;DHT22;59738;48.324;14.230;2022-08-04T00:19:40;22.80;29.20
71868;DHT22;59738;48.324;14.230;2022-08-04T00:22:11;22.70;29.60
71868;DHT22;59738;48.324;14.230;2022-08-04T00:24:41;22.70;29.50
71868;DHT22;59738;48.324;14.230;2022-08-04T00:27:10;22.70;29.70
71868;DHT22;59738;48.324;14.230;2022-08-04T00:29:39;22.70;29.70
71868;DHT22;59738;48.324;14.230;2022-08-04T00:32:07;22.70;30.00
71868;DHT22;59738;48.324;14.230;2022-08-04T00:34:35;22.70;30.00
71868;DHT22;59738;48.324;14.230;2022-08-04T00:37:04;22.60;30.70
71868;DHT22;59738;48.324;14.230;2022-08-04T00:39:32;22.50;30.30
71868;DHT22;59738;48.324;14.230;2022-08-04T00:42:20;22.60;30.00
71868;DHT22;59738;48.324;14.230;2022-08-04T00:48:01;22.60;30.10
71868;DHT22;59738;48.324;14.230;2022-08-04T00:50:35;22.70;30.40
71868;DHT22;59738;48.324;14.230;2022-08-04T00:53:07;22.70;30.70
71868;DHT22;59738;48.324;14.230;2022-08-04T00:55:59;22.60;31.10
71868;DHT22;59738;48.324;14.230;2022-08-04T00:58:53;22.60;31.50
71868;DHT22;59738;48.324;14.230;2022-08-04T01:01:48;22.50;31.50
71868;DHT22;59738;48.324;14.230;2022-08-04T01:04:26;22.50;31.40
71868;DHT22;59738;48.324;14.230;2022-08-04T01:07:10;22.50;31.80
71868;DHT22;59738;48.324;14.230;2022-08-04T01:09:50;22.50;32.20
71868;DHT22;59738;48.324;14.230;2022-08-04T01:12:37;22.50;31.90
71868;DHT22;59738;48.324;14.230;2022-08-04T01:15:17;22.50;32.60
71868;DHT22;59738;48.324;14.230;2022-08-04T01:17:57;22.50;32.50
71868;DHT22;59738;48.324;14.230;2022-08-04T01:20:26;22.50;32.80
71868;DHT22;59738;48.324;14.230;2022-08-04T01:26:25;22.40;33.60
71868;DHT22;59738;48.324;14.230;2022-08-04T01:29:06;22.40;33.30
71868;DHT22;59738;48.324;14.230;2022-08-04T01:31:45;22.40;34.30
71868;DHT22;59738;48.324;14.230;2022-08-04T01:34:17;22.10;33.00
71868;DHT22;59738;48.324;14.230;2022-08-04T01:36:58;21.90;35.60
71868;DHT22;59738;48.324;14.230;2022-08-04T01:39:40;21.70;35.90
71868;DHT22;59738;48.324;14.230;2022-08-04T01:42:10;21.40;38.70
71868;DHT22;59738;48.324;14.230;2022-08-04T01:44:40;21.20;38.80
71868;DHT22;59738;48.324;14.230;2022-08-04T01:47:08;21.10;38.20
71868;DHT22;59738;48.324;14.230;2022-08-04T01:49:37;21.00;38.90
71868;DHT22;59738;48.324;14.230;2022-08-04T01:52:07;20.80;40.00
71868;DHT22;59738;48.324;14.230;2022-08-04T01:54:37;20.80;40.20
71868;DHT22;59738;48.324;14.230;2022-08-04T01:57:09;21.10;39.50
71868;DHT22;59738;48.324;14.230;2022-08-04T01:59:37;21.10;37.70
71868;DHT22;59738;48.324;14.230;2022-08-04T02:02:07;21.10;38.80
71868;DHT22;59738;48.324;14.230;2022-08-04T02:04:35;20.90;41.90
71868;DHT22;59738;48.324;14.230;2022-08-04T02:07:16;20.70;41.30
71868;DHT22;59738;48.324;14.230;2022-08-04T02:09:52;20.60;42.10
71868;DHT22;59738;48.324;14.230;2022-08-04T02:12:26;20.50;43.20
71868;DHT22;59738;48.324;14.230;2022-08-04T02:15:02;20.30;43.30
71868;DHT22;59738;48.324;14.230;2022-08-04T02:17:45;20.10;44.80
71868;DHT22;59738;48.324;14.230;2022-08-04T02:20:22;20.00;47.30
71868;DHT22;59738;48.324;14.230;2022-08-04T02:22:54;19.90;46.80
71868;DHT22;59738;48.324;14.230;2022-08-04T02:25:25;19.90;48.00
71868;DHT22;59738;48.324;14.230;2022-08-04T02:28:20;19.80;49.00
71868;DHT22;59738;48.324;14.230;2022-08-04T02:30:57;19.80;47.30
71868;DHT22;59738;48.324;14.230;2022-08-04T02:33:34;19.80;50.00
71868;DHT22;59738;48.324;14.230;2022-08-04T02:36:04;20.00;50.00
71868;DHT22;59738;48.324;14.230;2022-08-04T02:38:46;19.80;49.60
71868;DHT22;59738;48.324;14.230;2022-08-04T02:41:22;19.70;49.00
71868;DHT22;59738;48.324;14.230;2022-08-04T02:43:59;19.70;48.10
71868;DHT22;59738;48.324;14.230;2022-08-04T02:46:28;19.70;48.60
71868;DHT22;59738;48.324;14.230;2022-08-04T02:49:01;19.70;49.00
71868;DHT22;59738;48.324;14.230;2022-08-04T02:51:31;19.50;49.10
71868;DHT22;59738;48.324;14.230;2022-08-04T02:54:02;19.40;50.40
71868;DHT22;59738;48.324;14.230;2022-08-04T02:56:32;19.30;52.20
71868;DHT22;59738;48.324;14.230;2022-08-04T02:59:02;19.10;51.00
71868;DHT22;59738;48.324;14.230;2022-08-04T03:01:30;19.10;52.40
71868;DHT22;59738;48.324;14.230;2022-08-04T03:04:10;19.00;52.80
71868;DHT22;59738;48.324;14.230;2022-08-04T03:07:23;19.00;52.40
71868;DHT22;59738;48.324;14.230;2022-08-04T03:10:30;19.00;53.40
71868;DHT22;59738;48.324;14.230;2022-08-04T03:13:19;18.70;55.00
71868;DHT22;59738;48.324;14.230;2022-08-04T03:16:08;18.70;54.80
71868;DHT22;59738;48.324;14.230;2022-08-04T03:22:06;18.90;53.90
71868;DHT22;59738;48.324;14.230;2022-08-04T03:25:10;19.00;53.30
71868;DHT22;59738;48.324;14.230;2022-08-04T03:31:10;18.70;54.80
71868;DHT22;59738;48.324;14.230;2022-08-04T03:33:59;18.60;56.00
71868;DHT22;59738;48.324;14.230;2022-08-04T03:36:53;18.70;54.60
71868;DHT22;59738;48.324;14.230;2022-08-04T03:40:01;18.80;55.90
71868;DHT22;59738;48.324;14.230;2022-08-04T03:49:09;18.50;58.40
71868;DHT22;59738;48.324;14.230;2022-08-04T03:51:49;18.40;57.80
71868;DHT22;59738;48.324;14.230;2022-08-04T03:55:15;18.40;58.40
71868;DHT22;59738;48.324;14.230;2022-08-04T03:58:04;18.40;57.60
71868;DHT22;59738;48.324;14.230;2022-08-04T04:00:40;18.40;58.80
71868;DHT22;59738;48.324;14.230;2022-08-04T04:09:46;18.30;61.90
71868;DHT22;59738;48.324;14.230;2022-08-04T04:12:39;18.30;61.10
71868;DHT22;59738;48.324;14.230;2022-08-04T04:15:29;18.30;59.30
71868;DHT22;59738;48.324;14.230;2022-08-04T04:18:15;18.40;58.20
71868;DHT22;59738;48.324;14.230;2022-08-04T04:20:56;18.50;59.20
71868;DHT22;59738;48.324;14.230;2022-08-04T04:23:35;18.60;59.30
71868;DHT22;59738;48.324;14.230;2022-08-04T04:26:27;18.60;59.10
71868;DHT22;59738;48.324;14.230;2022-08-04T04:29:16;18.60;59.00
71868;DHT22;59738;48.324;14.230;2022-08-04T04:31:58;18.70;59.10
71868;DHT22;59738;48.324;14.230;2022-08-04T04:34:41;18.70;59.40
71868;DHT22;59738;48.324;14.230;2022-08-04T04:37:20;18.60;61.60
71868;DHT22;59738;48.324;14.230;2022-08-04T04:40:02;18.50;63.70
71868;DHT22;59738;48.324;14.230;2022-08-04T04:42:46;18.50;63.40
71868;DHT22;59738;48.324;14.230;2022-08-04T04:45:24;18.60;62.90
71868;DHT22;59738;48.324;14.230;2022-08-04T04:48:07;19.00;61.50
71868;DHT22;59738;48.324;14.230;2022-08-04T04:50:44;19.30;61.20
71868;DHT22;59738;48.324;14.230;2022-08-04T04:53:21;19.80;59.70
71868;DHT22;59738;48.324;14.230;2022-08-04T04:55:55;20.20;57.30
71868;DHT22;59738;48.324;14.230;2022-08-04T04:58:26;20.60;55.90
71868;DHT22;59738;48.324;14.230;2022-08-04T05:01:12;21.00;54.70
71868;DHT22;59738;48.324;14.230;2022-08-04T05:07:00;21.50;52.90
71868;DHT22;59738;48.324;14.230;2022-08-04T05:09:45;21.60;51.40
71868;DHT22;59738;48.324;14.230;2022-08-04T05:12:47;21.90;50.80
71868;DHT22;59738;48.324;14.230;2022-08-04T05:15:19;21.90;48.80
71868;DHT22;59738;48.324;14.230;2022-08-04T05:17:51;22.20;49.30
71868;DHT22;59738;48.324;14.230;2022-08-04T05:20:22;22.50;48.20
71868;DHT22;59738;48.324;14.230;2022-08-04T05:22:55;22.70;45.20
71868;DHT22;59738;48.324;14.230;2022-08-04T05:25:27;22.50;45.80
71868;DHT22;59738;48.324;14.230;2022-08-04T05:27:59;22.50;43.30
71868;DHT22;59738;48.324;14.230;2022-08-04T05:30:31;22.60;43.60
71868;DHT22;59738;48.324;14.230;2022-08-04T05:33:03;22.80;43.90
71868;DHT22;59738;48.324;14.230;2022-08-04T05:35:35;22.80;43.30
71868;DHT22;59738;48.324;14.230;2022-08-04T05:38:05;23.10;44.20
71868;DHT22;59738;48.324;14.230;2022-08-04T05:40:34;23.20;43.40
71868;DHT22;59738;48.324;14.230;2022-08-04T05:43:02;23.40;42.00
71868;DHT22;59738;48.324;14.230;2022-08-04T05:45:33;23.10;40.10
71868;DHT22;59738;48.324;14.230;2022-08-04T05:48:05;23.00;42.70
71868;DHT22;59738;48.324;14.230;2022-08-04T05:50:34;23.10;42.20
71868;DHT22;59738;48.324;14.230;2022-08-04T05:53:03;23.30;40.90
71868;DHT22;59738;48.324;14.230;2022-08-04T05:55:32;23.40;41.00
71868;DHT22;59738;48.324;14.230;2022-08-04T05:58:01;23.50;41.10
71868;DHT22;59738;48.324;14.230;2022-08-04T06:00:29;23.50;41.00
71868;DHT22;59738;48.324;14.230;2022-08-04T06:02:59;23.50;41.50
71868;DHT22;59738;48.324;14.230;2022-08-04T06:05:30;23.50;41.90
71868;DHT22;59738;48.324;14.230;2022-08-04T06:07:59;23.40;43.90
71868;DHT22;59738;48.324;14.230;2022-08-04T06:10:27;23.80;41.30
71868;DHT22;59738;48.324;14.230;2022-08-04T06:12:59;23.90;41.40
71868;DHT22;59738;48.324;14.230;2022-08-04T06:15:28;24.00;40.20
71868;DHT22;59738;48.324;14.230;2022-08-04T06:18:01;24.10;41.40
71868;DHT22;59738;48.324;14.230;2022-08-04T06:20:33;24.10;42.00
71868;DHT22;59738;48.324;14.230;2022-08-04T06:23:03;24.50;41.10
71868;DHT22;59738;48.324;14.230;2022-08-04T06:25:37;24.60;41.80
71868;DHT22;59738;48.324;14.230;2022-08-04T06:28:06;24.70;41.70
71868;DHT22;59738;48.324;14.230;2022-08-04T06:30:35;24.90;41.50
71868;DHT22;59738;48.324;14.230;2022-08-04T06:33:04;24.90;39.60
71868;DHT22;59738;48.324;14.230;2022-08-04T06:35:51;25.00;40.10
71868;DHT22;59738;48.324;14.230;2022-08-04T06:38:22;25.20;38.20
71868;DHT22;59738;48.324;14.230;2022-08-04T06:40:52;25.00;39.40
71868;DHT22;59738;48.324;14.230;2022-08-04T06:43:21;25.00;41.60
71868;DHT22;59738;48.324;14.230;2022-08-04T06:45:49;25.20;41.20
71868;DHT22;59738;48.324;14.230;2022-08-04T06:48:18;25.40;41.10
71868;DHT22;59738;48.324;14.230;2022-08-04T06:50:47;25.30;39.10
71868;DHT22;59738;48.324;14.230;2022-08-04T06:53:17;25.50;41.60
71868;DHT22;59738;48.324;14.230;2022-08-04T06:55:46;25.50;40.20
71868;DHT22;59738;48.324;14.230;2022-08-04T06:58:15;25.60;41.70
71868;DHT22;59738;48.324;14.230;2022-08-04T07:00:44;25.60;41.30
71868;DHT22;59738;48.324;14.230;2022-08-04T07:03:14;25.50;42.00
71868;DHT22;59738;48.324;14.230;2022-08-04T07:05:45;25.70;42.80
71868;DHT22;59738;48.324;14.230;2022-08-04T07:08:13;25.80;39.80
71868;DHT22;59738;48.324;14.230;2022-08-04T07:10:44;25.90;40.10
71868;DHT22;59738;48.324;14.230;2022-08-04T07:13:13;26.10;39.40
71868;DHT22;59738;48.324;14.230;2022-08-04T07:15:43;26.20;39.80
71868;DHT22;59738;48.324;14.230;2022-08-04T07:18:11;26.20;40.50
71868;DHT22;59738;48.324;14.230;2022-08-04T07:20:40;26.10;38.50
71868;DHT22;59738;48.324;14.230;2022-08-04T07:23:08;26.10;37.40
71868;DHT22;59738;48.324;14.230;2022-08-04T07:25:38;26.30;40.10
71868;DHT22;59738;48.324;14.230;2022-08-04T07:28:08;26.30;38.20
71868;DHT22;59738;48.324;14.230;2022-08-04T07:30:36;26.60;37.90
71868;DHT22;59738;48.324;14.230;2022-08-04T07:33:04;26.50;38.80
71868;DHT22;59738;48.324;14.230;2022-08-04T07:35:33;26.80;36.00
71868;DHT22;59738;48.324;14.230;2022-08-04T07:38:01;26.90;37.70
71868;DHT22;59738;48.324;14.230;2022-08-04T07:40:29;26.90;36.80
71868;DHT22;59738;48.324;14.230;2022-08-04T07:42:57;27.20;36.10
71868;DHT22;59738;48.324;14.230;2022-08-04T07:45:26;27.00;36.90
71868;DHT22;59738;48.324;14.230;2022-08-04T07:47:54;27.20;37.90
71868;DHT22;59738;48.324;14.230;2022-08-04T07:50:24;27.10;36.90
71868;DHT22;59738;48.324;14.230;2022-08-04T07:52:52;27.30;37.80
71868;DHT22;59738;48.324;14.230;2022-08-04T07:55:21;27.70;37.00
71868;DHT22;59738;48.324;14.230;2022-08-04T07:57:49;27.80;35.70
71868;DHT22;59738;48.324;14.230;2022-08-04T08:00:17;28.00;34.30
71868;DHT22;59738;48.324;14.230;2022-08-04T08:02:49;28.40;34.70
71868;DHT22;59738;48.324;14.230;2022-08-04T08:05:18;28.20;33.60
71868;DHT22;59738;48.324;14.230;2022-08-04T08:07:47;28.30;33.40
71868;DHT22;59738;48.324;14.230;2022-08-04T08:10:15;28.60;33.20
71868;DHT22;59738;48.324;14.230;2022-08-04T08:12:43;28.80;33.80
71868;DHT22;59738;48.324;14.230;2022-08-04T08:15:11;28.70;33.30
71868;DHT22;59738;48.324;14.230;2022-08-04T08:17:39;28.00;34.90
71868;DHT22;59738;48.324;14.230;2022-08-04T08:20:09;28.50;33.00
71868;DHT22;59738;48.324;14.230;2022-08-04T08:22:37;28.40;32.70
71868;DHT22;59738;48.324;14.230;2022-08-04T08:25:06;28.60;31.20
71868;DHT22;59738;48.324;14.230;2022-08-04T08:27:36;28.70;32.50
71868;DHT22;59738;48.324;14.230;2022-08-04T08:30:04;28.80;30.20
71868;DHT22;59738;48.324;14.230;2022-08-04T08:32:32;29.30;30.60
71868;DHT22;59738;48.324;14.230;2022-08-04T08:35:00;29.70;32.80
71868;DHT22;59738;48.324;14.230;2022-08-04T08:37:34;29.40;32.20
71868;DHT22;59738;48.324;14.230;2022-08-04T08:40:20;29.40;28.70
71868;DHT22;59738;48.324;14.230;2022-08-04T08:43:15;29.70;30.40
71868;DHT22;59738;48.324;14.230;2022-08-04T08:46:03;29.60;28.50
71868;DHT22;59738;48.324;14.230;2022-08-04T08:49:01;29.30;30.40
71868;DHT22;59738;48.324;14.230;2022-08-04T08:51:53;29.10;30.90
71868;DHT22;59738;48.324;14.230;2022-08-04T08:57:53;29.70;31.10
71868;DHT22;59738;48.324;14.230;2022-08-04T09:00:35;29.50;30.30
71868;DHT22;59738;48.324;14.230;2022-08-04T09:03:37;30.40;29.90
71868;DHT22;59738;48.324;14.230;2022-08-04T09:06:44;30.70;31.30
71868;DHT22;59738;48.324;14.230;2022-08-04T09:09:28;30.30;28.20
71868;DHT22;59738;48.324;14.230;2022-08-04T09:12:08;29.90;29.60
71868;DHT22;59738;48.324;14.230;2022-08-04T09:14:43;30.30;29.50
71868;DHT22;59738;48.324;14.230;2022-08-04T09:17:20;29.90;27.70
71868;DHT22;59738;48.324;14.230;2022-08-04T09:19:51;30.00;29.40
71868;DHT22;59738;48.324;14.230;2022-08-04T09:22:28;30.30;27.40
71868;DHT22;59738;48.324;14.230;2022-08-04T09:25:02;30.10;29.40
71868;DHT22;59738;48.324;14.230;2022-08-04T09:27:43;30.60;30.00
71868;DHT22;59738;48.324;14.230;2022-08-04T09:30:17;30.50;27.50
71868;DHT22;59738;48.324;14.230;2022-08-04T09:32:56;30.70;30.40
71868;DHT22;59738;48.324;14.230;2022-08-04T09:35:32;30.40;27.90
71868;DHT22;59738;48.324;14.230;2022-08-04T09:38:08;30.90;29.20
71868;DHT22;59738;48.324;14.230;2022-08-04T09:40:46;30.40;28.50
71868;DHT22;59738;48.324;14.230;2022-08-04T09:43:31;30.60;27.90
71868;DHT22;59738;48.324;14.230;2022-08-04T09:46:07;30.90;30.40
71868;DHT22;59738;48.324;14.230;2022-08-04T09:48:43;30.90;27.20
71868;DHT22;59738;48.324;14.230;2022-08-04T09:51:35;30.80;26.40
71868;DHT22;59738;48.324;14.230;2022-08-04T09:54:11;30.60;29.30
71868;DHT22;59738;48.324;14.230;2022-08-04T09:56:45;30.80;29.40
71868;DHT22;59738;48.324;14.230;2022-08-04T09:59:23;31.00;27.50
71868;DHT22;59738;48.324;14.230;2022-08-04T10:01:56;30.60;28.40
71868;DHT22;59738;48.324;14.230;2022-08-04T10:04:28;30.90;29.50
71868;DHT22;59738;48.324;14.230;2022-08-04T10:07:08;31.30;27.20
71868;DHT22;59738;48.324;14.230;2022-08-04T10:09:56;31.10;27.20
71868;DHT22;59738;48.324;14.230;2022-08-04T10:12:34;30.60;28.00
71868;DHT22;59738;48.324;14.230;2022-08-04T10:15:09;31.00;27.60
71868;DHT22;59738;48.324;14.230;2022-08-04T10:17:50;30.80;27.10
71868;DHT22;59738;48.324;14.230;2022-08-04T10:20:41;30.70;27.30
71868;DHT22;59738;48.324;14.230;2022-08-04T10:23:11;31.00;27.50
71868;DHT22;59738;48.324;14.230;2022-08-04T10:26:04;30.70;27.30
71868;DHT22;59738;48.324;14.230;2022-08-04T10:28:37;30.90;26.30
71868;DHT22;59738;48.324;14.230;2022-08-04T10:31:14;31.00;27.40
71868;DHT22;59738;48.324;14.230;2022-08-04T10:33:49;31.30;28.40
71868;DHT22;59738;48.324;14.230;2022-08-04T10:36:21;31.30;26.20
71868;DHT22;59738;48.324;14.230;2022-08-04T10:38:56;31.40;26.50
71868;DHT22;59738;48.324;14.230;2022-08-04T10:41:31;31.40;24.90
71868;DHT22;59738;48.324;14.230;2022-08-04T10:44:12;31.20;26.40
71868;DHT22;59738;48.324;14.230;2022-08-04T10:46:46;31.10;25.90
71868;DHT22;59738;48.324;14.230;2022-08-04T10:49:21;30.80;27.90
71868;DHT22;59738;48.324;14.230;2022-08-04T10:51:52;31.30;27.00
71868;DHT22;59738;48.324;14.230;2022-08-04T10:54:26;31.00;27.00
71868;DHT22;59738;48.324;14.230;2022-08-04T10:56:59;30.80;26.20
71868;DHT22;59738;48.324;14.230;2022-08-04T10:59:37;31.10;27.00
71868;DHT22;59738;48.324;14.230;2022-08-04T11:02:18;31.30;25.50
71868;DHT22;59738;48.324;14.230;2022-08-04T11:04:52;31.50;25.50
71868;DHT22;59738;48.324;14.230;2022-08-04T11:07:28;31.60;25.60
71868;DHT22;59738;48.324;14.230;2022-08-04T11:09:56;31.80;28.90
71868;DHT22;59738;48.324;14.230;2022-08-04T11:12:25;31.90;24.80
71868;DHT22;59738;48.324;14.230;2022-08-04T11:14:57;32.20;23.20
71868;DHT22;59738;48.324;14.230;2022-08-04T11:17:30;32.40;23.80
71868;DHT22;59738;48.324;14.230;2022-08-04T11:20:05;31.70;24.20
71868;DHT22;59738;48.324;14.230;2022-08-04T11:22:40;31.70;25.30
71868;DHT22;59738;48.324;14.230;2022-08-04T11:25:13;32.00;24.70
71868;DHT22;59738;48.324;14.230;2022-08-04T11:27:53;31.90;23.10
71868;DHT22;59738;48.324;14.230;2022-08-04T11:30:24;32.00;25.10
71868;DHT22;59738;48.324;14.230;2022-08-04T11:33:03;32.00;25.10
71868;DHT22;59738;48.324;14.230;2022-08-04T11:35:37;32.10;24.60
71868;DHT22;59738;48.324;14.230;2022-08-04T11:38:11;31.70;24.70
71868;DHT22;59738;48.324;14.230;2022-08-04T11:40:47;31.70;25.60
71868;DHT22;59738;48.324;14.230;2022-08-04T11:43:23;31.90;24.30
71868;DHT22;59738;48.324;14.230;2022-08-04T11:45:54;31.50;25.10
71868;DHT22;59738;48.324;14.230;2022-08-04T11:48:29;31.60;26.10
71868;DHT22;59738;48.324;14.230;2022-08-04T11:50:59;31.40;27.70
71868;DHT22;59738;48.324;14.230;2022-08-04T11:53:32;31.60;26.10
71868;DHT22;59738;48.324;14.230;2022-08-04T11:56:04;31.50;25.30
71868;DHT22;59738;48.324;14.230;2022-08-04T11:58:32;31.60;27.20
71868;DHT22;59738;48.324;14.230;2022-08-04T12:01:10;31.50;24.30
71868;DHT22;59738;48.324;14.230;2022-08-04T12:03:48;31.60;25.50
71868;DHT22;59738;48.324;14.230;2022-08-04T12:06:23;31.50;24.30
71868;DHT22;59738;48.324;14.230;2022-08-04T12:09:06;31.50;24.90
71868;DHT22;59738;48.324;14.230;2022-08-04T12:11:42;31.30;25.50
71868;DHT22;59738;48.324;14.230;2022-08-04T12:14:25;31.70;28.10
71868;DHT22;59738;48.324;14.230;2022-08-04T12:16:58;31.70;26.10
71868;DHT22;59738;48.324;14.230;2022-08-04T12:19:34;31.70;23.10
71868;DHT22;59738;48.324;14.230;2022-08-04T12:22:07;31.50;24.20
71868;DHT22;59738;48.324;14.230;2022-08-04T12:24:43;31.60;25.10
71868;DHT22;59738;48.324;14.230;2022-08-04T12:27:14;31.80;24.40
71868;DHT22;59738;48.324;14.230;2022-08-04T12:29:45;31.60;25.10
71868;DHT22;59738;48.324;14.230;2022-08-04T12:32:21;31.70;25.90
71868;DHT22;59738;48.324;14.230;2022-08-04T12:35:02;31.60;27.80
71868;DHT22;59738;48.324;14.230;2022-08-04T12:37:43;32.00;24.10
71868;DHT22;59738;48.324;14.230;2022-08-04T12:40:16;32.10;28.20
71868;DHT22;59738;48.324;14.230;2022-08-04T12:42:54;32.20;24.50
71868;DHT22;59738;48.324;14.230;2022-08-04T12:45:25;32.20;23.60
71868;DHT22;59738;48.324;14.230;2022-08-04T12:47:57;32.20;24.00
71868;DHT22;59738;48.324;14.230;2022-08-04T12:50:27;32.50;26.00
71868;DHT22;59738;48.324;14.230;2022-08-04T12:52:56;32.70;25.00
71868;DHT22;59738;48.324;14.230;2022-08-04T12:55:27;32.60;26.00
71868;DHT22;59738;48.324;14.230;2022-08-04T12:57:55;32.70;23.70
71868;DHT22;59738;48.324;14.230;2022-08-04T13:00:26;32.80;24.30
71868;DHT22;59738;48.324;14.230;2022-08-04T13:02:58;33.00;24.60
71868;DHT22;59738;48.324;14.230;2022-08-04T13:05:29;32.70;22.60
71868;DHT22;59738;48.324;14.230;2022-08-04T13:07:59;32.30;23.70
71868;DHT22;59738;48.324;14.230;2022-08-04T13:10:28;32.50;23.10
71868;DHT22;59738;48.324;14.230;2022-08-04T13:12:58;32.40;22.60
71868;DHT22;59738;48.324;14.230;2022-08-04T13:15:28;32.30;22.10
71868;DHT22;59738;48.324;14.230;2022-08-04T13:18:01;32.50;25.90
71868;DHT22;59738;48.324;14.230;2022-08-04T13:20:34;32.70;25.80
71868;DHT22;59738;48.324;14.230;2022-08-04T13:23:06;32.90;22.20
71868;DHT22;59738;48.324;14.230;2022-08-04T13:25:36;32.70;21.20
71868;DHT22;59738;48.324;14.230;2022-08-04T13:28:12;32.90;21.40
71868;DHT22;59738;48.324;14.230;2022-08-04T13:30:44;33.10;21.20
71868;DHT22;59738;48.324;14.230;2022-08-04T13:33:14;33.00;22.40
71868;DHT22;59738;48.324;14.230;2022-08-04T13:35:45;33.10;21.70
71868;DHT22;59738;48.324;14.230;2022-08-04T13:38:16;32.80;21.60
71868;DHT22;59738;48.324;14.230;2022-08-04T13:40:45;32.40;22.10
71868;DHT22;59738;48.324;14.230;2022-08-04T13:43:23;32.00;23.80
71868;DHT22;59738;48.324;14.230;2022-08-04T13:45:58;32.40;22.00
71868;DHT22;59738;48.324;14.230;2022-08-04T13:48:31;32.70;20.90
71868;DHT22;59738;48.324;14.230;2022-08-04T13:51:04;32.90;17.70
71868;DHT22;59738;48.324;14.230;2022-08-04T13:53:33;32.80;21.70
71868;DHT22;59738;48.324;14.230;2022-08-04T13:56:02;32.40;19.70
71868;DHT22;59738;48.324;14.230;2022-08-04T13:58:33;32.70;17.70
71868;DHT22;59738;48.324;14.230;2022-08-04T14:01:09;33.20;18.80
71868;DHT22;59738;48.324;14.230;2022-08-04T14:03:43;33.50;18.30
71868;DHT22;59738;48.324;14.230;2022-08-04T14:06:17;32.80;19.50
71868;DHT22;59738;48.324;14.230;2022-08-04T14:08:50;32.80;18.60
71868;DHT22;59738;48.324;14.230;2022-08-04T14:11:20;32.70;18.40
71868;DHT22;59738;48.324;14.230;2022-08-04T14:13:48;32.10;19.30
71868;DHT22;59738;48.324;14.230;2022-08-04T14:16:18;32.20;20.60
71868;DHT22;59738;48.324;14.230;2022-08-04T14:18:47;32.70;20.50
71868;DHT22;59738;48.324;14.230;2022-08-04T14:21:24;32.50;19.80
71868;DHT22;59738;48.324;14.230;2022-08-04T14:23:54;32.30;19.00
71868;DHT22;59738;48.324;14.230;2022-08-04T14:26:25;32.10;19.00
71868;DHT22;59738;48.324;14.230;2022-08-04T14:28:54;32.30;20.00
71868;DHT22;59738;48.324;14.230;2022-08-04T14:31:25;32.10;20.00
71868;DHT22;59738;48.324;14.230;2022-08-04T14:33:53;31.90;18.60
71868;DHT22;59738;48.324;14.230;2022-08-04T14:36:21;31.90;20.30
71868;DHT22;59738;48.324;14.230;2022-08-04T14:38:52;32.30;21.30
71868;DHT22;59738;48.324;14.230;2022-08-04T14:41:23;32.40;19.90
71868;DHT22;59738;48.324;14.230;2022-08-04T14:43:54;32.40;18.90
71868;DHT22;59738;48.324;14.230;2022-08-04T14:46:24;32.20;20.10
71868;DHT22;59738;48.324;14.230;2022-08-04T14:49:04;32.30;25.70
71868;DHT22;59738;48.324;14.230;2022-08-04T14:51:37;32.40;20.30
71868;DHT22;59738;48.324;14.230;2022-08-04T14:54:07;33.10;19.20
71868;DHT22;59738;48.324;14.230;2022-08-04T14:56:36;33.10;17.90
71868;DHT22;59738;48.324;14.230;2022-08-04T14:59:07;33.00;18.90
71868;DHT22;59738;48.324;14.230;2022-08-04T15:01:35;33.10;18.90
71868;DHT22;59738;48.324;14.230;2022-08-04T15:04:05;33.00;18.40
71868;DHT22;59738;48.324;14.230;2022-08-04T15:06:34;33.00;18.60
71868;DHT22;59738;48.324;14.230;2022-08-04T15:09:04;32.80;21.10
71868;DHT22;59738;48.324;14.230;2022-08-04T15:11:35;32.50;18.80
71868;DHT22;59738;48.324;14.230;2022-08-04T15:14:03;32.10;17.00
71868;DHT22;59738;48.324;14.230;2022-08-04T15:16:32;32.30;17.00
71868;DHT22;59738;48.324;14.230;2022-08-04T15:19:00;32.50;17.60
71868;DHT22;59738;48.324;14.230;2022-08-04T15:21:28;32.70;17.20
71868;DHT22;59738;48.324;14.230;2022-08-04T15:23:57;32.90;17.40
71868;DHT22;59738;48.324;14.230;2022-08-04T15:26:29;32.90;17.20
71868;DHT22;59738;48.324;14.230;2022-08-04T15:29:04;33.00;18.60
71868;DHT22;59738;48.324;14.230;2022-08-04T15:31:36;33.20;17.10
71868;DHT22;59738;48.324;14.230;2022-08-04T15:34:06;32.90;18.50
71868;DHT22;59738;48.324;14.230;2022-08-04T15:36:43;32.70;16.40
71868;DHT22;59738;48.324;14.230;2022-08-04T15:39:23;32.80;19.30
71868;DHT22;59738;48.324;14.230;2022-08-04T15:41:59;32.70;19.70
71868;DHT22;59738;48.324;14.230;2022-08-04T15:45:02;32.50;19.90
71868;DHT22;59738;48.324;14.230;2022-08-04T15:47:31;32.50;21.80
71868;DHT22;59738;48.324;14.230;2022-08-04T15:50:05;32.10;19.00
71868;DHT22;59738;48.324;14.230;2022-08-04T15:52:58;32.00;18.00
71868;DHT22;59738;48.324;14.230;2022-08-04T15:55:33;32.10;18.70
71868;DHT22;59738;48.324;14.230;2022-08-04T15:58:03;32.10;18.40
71868;DHT22;59738;48.324;14.230;2022-08-04T16:03:42;32.10;20.70
71868;DHT22;59738;48.324;14.230;2022-08-04T16:06:40;31.90;19.20
71868;DHT22;59738;48.324;14.230;2022-08-04T16:09:23;31.90;16.80
71868;DHT22;59738;48.324;14.230;2022-08-04T16:11:51;31.90;18.60
71868;DHT22;59738;48.324;14.230;2022-08-04T16:14:34;31.80;17.60
71868;DHT22;59738;48.324;14.230;2022-08-04T16:17:15;31.80;18.40
71868;DHT22;59738;48.324;14.230;2022-08-04T16:20:07;31.90;18.30
71868;DHT22;59738;48.324;14.230;2022-08-04T16:22:39;31.90;15.80
71868;DHT22;59738;48.324;14.230;2022-08-04T16:25:08;32.00;16.00
71868;DHT22;59738;48.324;14.230;2022-08-04T16:27:42;32.00;16.70
71868;DHT22;59738;48.324;14.230;2022-08-04T16:30:11;32.00;18.50
71868;DHT22;59738;48.324;14.230;2022-08-04T16:32:44;31.90;20.30
71868;DHT22;59738;48.324;14.230;2022-08-04T16:35:22;31.90;17.10
71868;DHT22;59738;48.324;14.230;2022-08-04T16:38:10;31.80;17.50
71868;DHT22;59738;48.324;14.230;2022-08-04T16:40:40;31.80;19.00